Terminal Aerodrome Forecast
Issued by NWS El Paso, TX

Home | Current Version | Previous Version | Text Only | Print | Product List | Glossary On
Versions: 1 2 3 4 5 6 7 8 9 10 11 12 13 14
000
FTUS44 KEPZ 031500 AAA
TAFELP
TAF AMD
KELP 031542Z 0316/0412 20008KT P6SM -RA FEW015 SCT050 BKN090
      TEMPO 0316/0319 P6SM -RA FEW015 SCT020 BKN040
     FM031900 23012KT P6SM VCSH SCT030 BKN060
     FM040000 24009KT P6SM FEW030 SCT060=

USA.gov is the U.S. government's official web portal to all federal, state and local government web resources and services.